Time;durP1;ratioP1;P1;durP2;ratioP2;P2;SDS_P1;SDS_P2;PMS_P1;PMS_P2;Temp;Humidity;BMP_temperature;BMP_pressure;BME280_temperature;BME280_humidity;BME280_pressure;Samples;Min_cycle;Max_cycle;Signal;HPM_P1;HPM_P2
2022/04/24 00:01:11;;;;;;;12.27;11.57;;;;;;;;;;5072394;28;20039;-46
2022/04/24 00:03:37;;;;;;;12.05;11.35;;;;;;;;;;5073920;28;20089;-47
2022/04/24 00:06:02;;;;;;;12.48;11.77;;;;;;;;;;5070951;28;20062;-46
2022/04/24 00:08:28;;;;;;;12.95;12.05;;;;;;;;;;5075596;28;20116;-46
2022/04/24 00:10:53;;;;;;;13.55;12.75;;;;;;;;;;5075567;28;20028;-46
2022/04/24 00:13:18;;;;;;;13.57;12.70;;;;;;;;;;5072763;28;20450;-46
2022/04/24 00:15:44;;;;;;;13.93;13.13;;;;;;;;;;5077358;28;20028;-47
2022/04/24 00:18:09;;;;;;;12.07;11.38;;;;;;;;;;5078984;28;20502;-47
2022/04/24 00:20:35;;;;;;;14.00;13.20;;;;;;;;;;5076869;28;20628;-45
2022/04/24 00:23:00;;;;;;;12.63;11.82;;;;;;;;;;5077354;28;20060;-48
2022/04/24 00:25:26;;;;;;;11.43;10.73;;;;;;;;;;5081957;28;20436;-46
2022/04/24 00:27:51;;;;;;;10.63;9.95;;;;;;;;;;5076594;28;20024;-46
2022/04/24 00:30:16;;;;;;;10.57;9.88;;;;;;;;;;5075535;28;20032;-46
2022/04/24 00:32:42;;;;;;;11.65;10.88;;;;;;;;;;5074823;28;20476;-46
2022/04/24 00:35:07;;;;;;;11.15;10.45;;;;;;;;;;5076967;28;20365;-46
2022/04/24 00:37:33;;;;;;;13.18;12.30;;;;;;;;;;5078180;28;20070;-46
2022/04/24 00:39:58;;;;;;;11.20;10.50;;;;;;;;;;5073800;28;20587;-47
2022/04/24 00:42:24;;;;;;;11.02;10.32;;;;;;;;;;5073192;28;20032;-46
2022/04/24 00:44:49;;;;;;;10.65;10.02;;;;;;;;;;5077580;28;20032;-46
2022/04/24 00:47:21;;;;;;;8.18;7.63;;;;;;;;;;5075742;28;20085;-46
2022/04/24 00:49:47;;;;;;;9.88;9.27;;;;;;;;;;5079586;28;20036;-48
2022/04/24 00:52:13;;;;;;;8.00;7.45;;;;;;;;;;5075175;28;20511;-45
2022/04/24 00:54:39;;;;;;;8.65;8.10;;;;;;;;;;5074105;28;20473;-46
2022/04/24 00:57:06;;;;;;;8.63;8.00;;;;;;;;;;5073089;28;20037;-54
2022/04/24 00:59:31;;;;;;;6.82;6.32;;;;;;;;;;5077789;28;20466;-56
2022/04/24 01:01:57;;;;;;;9.15;8.55;;;;;;;;;;5073990;28;20089;-55
2022/04/24 01:04:22;;;;;;;7.88;7.28;;;;;;;;;;5077121;28;20031;-56
2022/04/24 01:06:47;;;;;;;11.00;10.18;;;;;;;;;;5074296;28;20024;-56
2022/04/24 01:09:17;;;;;;;12.35;11.65;;;;;;;;;;5076936;28;20115;-55
2022/04/24 01:11:45;;;;;;;9.45;8.85;;;;;;;;;;5079594;28;20032;-55
2022/04/24 01:14:11;;;;;;;9.02;8.43;;;;;;;;;;5078747;28;20046;-56
2022/04/24 01:16:37;;;;;;;6.75;6.28;;;;;;;;;;5075572;28;20024;-56
2022/04/24 01:19:04;;;;;;;7.55;6.95;;;;;;;;;;5075070;28;20508;-55
2022/04/24 01:21:30;;;;;;;8.40;7.80;;;;;;;;;;5085780;28;20170;-48
2022/04/24 01:23:55;;;;;;;7.45;6.88;;;;;;;;;;5078422;28;20112;-47
2022/04/24 01:26:21;;;;;;;9.85;9.15;;;;;;;;;;5073421;28;20029;-47
2022/04/24 01:28:46;;;;;;;8.32;7.82;;;;;;;;;;5074398;28;20409;-46
2022/04/24 01:31:11;;;;;;;8.63;7.93;;;;;;;;;;5075241;28;20461;-46
2022/04/24 01:33:37;;;;;;;6.88;6.38;;;;;;;;;;5074564;28;20482;-47
2022/04/24 01:36:03;;;;;;;8.55;7.95;;;;;;;;;;5075145;28;20032;-45
2022/04/24 01:38:31;;;;;;;9.52;8.93;;;;;;;;;;5074469;28;20354;-54
2022/04/24 01:40:56;;;;;;;9.10;8.50;;;;;;;;;;5077641;28;20096;-54
2022/04/24 01:43:22;;;;;;;9.68;8.98;;;;;;;;;;5076629;28;20687;-55
2022/04/24 01:45:48;;;;;;;9.32;8.70;;;;;;;;;;5077741;28;20046;-54
2022/04/24 01:48:13;;;;;;;8.50;7.80;;;;;;;;;;5072476;28;20036;-53
2022/04/24 01:50:39;;;;;;;8.57;7.97;;;;;;;;;;5074704;28;20078;-56
2022/04/24 01:53:04;;;;;;;8.50;7.90;;;;;;;;;;5079358;28;20024;-46
2022/04/24 01:55:29;;;;;;;9.90;9.30;;;;;;;;;;5074326;28;20112;-47
2022/04/24 01:57:55;;;;;;;7.30;6.80;;;;;;;;;;5073975;28;20047;-46
2022/04/24 02:00:21;;;;;;;8.52;7.93;;;;;;;;;;5072803;28;20043;-47
2022/04/24 02:02:47;;;;;;;7.07;6.57;;;;;;;;;;5071497;28;20040;-47
2022/04/24 02:05:13;;;;;;;6.25;5.85;;;;;;;;;;5077842;28;20056;-48
2022/04/24 02:07:38;;;;;;;6.57;6.07;;;;;;;;;;5079348;28;20040;-46
2022/04/24 02:10:04;;;;;;;7.25;6.75;;;;;;;;;;5075936;28;20028;-47
2022/04/24 02:12:30;;;;;;;7.38;6.80;;;;;;;;;;5072661;28;20093;-49
2022/04/24 02:14:56;;;;;;;7.55;7.05;;;;;;;;;;5072762;28;20028;-47
2022/04/24 02:17:22;;;;;;;6.15;5.65;;;;;;;;;;5075161;28;20059;-46
2022/04/24 02:19:47;;;;;;;6.25;5.78;;;;;;;;;;5075426;28;20449;-46
2022/04/24 02:22:13;;;;;;;6.43;5.90;;;;;;;;;;5074746;28;20025;-46
2022/04/24 02:24:38;;;;;;;5.85;5.45;;;;;;;;;;5076741;28;20040;-47
2022/04/24 02:27:04;;;;;;;8.10;7.60;;;;;;;;;;5076408;28;20051;-45
2022/04/24 02:29:29;;;;;;;6.15;5.65;;;;;;;;;;5074260;28;20032;-49
2022/04/24 02:31:55;;;;;;;6.30;5.85;;;;;;;;;;5074966;28;20024;-46
2022/04/24 02:34:20;;;;;;;5.80;5.30;;;;;;;;;;5072549;28;20454;-47
2022/04/24 02:36:46;;;;;;;6.53;6.03;;;;;;;;;;5076069;28;20662;-46
2022/04/24 02:39:11;;;;;;;6.85;6.13;;;;;;;;;;5078519;28;20032;-46
2022/04/24 02:41:36;;;;;;;5.47;5.07;;;;;;;;;;5070679;28;20347;-48
2022/04/24 02:44:03;;;;;;;4.95;4.55;;;;;;;;;;5073199;28;20036;-46
2022/04/24 02:46:28;;;;;;;7.22;6.72;;;;;;;;;;5072056;28;20028;-45
2022/04/24 02:48:53;;;;;;;6.25;5.75;;;;;;;;;;5073680;28;20020;-45
2022/04/24 02:51:19;;;;;;;5.00;4.60;;;;;;;;;;5075422;28;20390;-44
2022/04/24 02:53:44;;;;;;;5.63;5.22;;;;;;;;;;5075685;28;20517;-45
2022/04/24 02:56:10;;;;;;;6.97;6.38;;;;;;;;;;5072967;28;20662;-45
2022/04/24 02:58:38;;;;;;;6.93;6.43;;;;;;;;;;5073434;28;20531;-45
2022/04/24 03:01:04;;;;;;;7.32;6.80;;;;;;;;;;5074582;28;20021;-45
2022/04/24 03:03:29;;;;;;;7.10;6.60;;;;;;;;;;5073275;28;20039;-48
2022/04/24 03:05:54;;;;;;;7.30;6.70;;;;;;;;;;5074941;28;20097;-44
2022/04/24 03:08:20;;;;;;;6.35;5.85;;;;;;;;;;5074027;28;20043;-46
2022/04/24 03:10:46;;;;;;;5.93;5.53;;;;;;;;;;5074858;28;20081;-46
2022/04/24 03:13:12;;;;;;;6.50;6.00;;;;;;;;;;5074434;28;20468;-46
2022/04/24 03:15:39;;;;;;;7.60;7.00;;;;;;;;;;5074466;28;20035;-44
2022/04/24 03:18:05;;;;;;;5.35;4.95;;;;;;;;;;5070599;28;20052;-44
2022/04/24 03:20:31;;;;;;;8.13;7.63;;;;;;;;;;5073796;28;20573;-44
2022/04/24 03:22:57;;;;;;;9.43;8.63;;;;;;;;;;5075598;28;20136;-46
2022/04/24 03:25:22;;;;;;;6.82;6.32;;;;;;;;;;5072704;28;20043;-44
2022/04/24 03:27:48;;;;;;;10.82;10.13;;;;;;;;;;5074112;28;20027;-45
2022/04/24 03:30:13;;;;;;;7.28;6.78;;;;;;;;;;5074716;28;20428;-45
2022/04/24 03:32:39;;;;;;;9.57;8.88;;;;;;;;;;5073944;28;20088;-44
2022/04/24 03:35:06;;;;;;;9.00;8.30;;;;;;;;;;5073792;28;20024;-45
2022/04/24 03:37:32;;;;;;;11.38;10.68;;;;;;;;;;5073467;28;20354;-46
2022/04/24 03:39:58;;;;;;;10.73;10.02;;;;;;;;;;5074568;28;20072;-46
2022/04/24 03:42:26;;;;;;;11.02;10.38;;;;;;;;;;5072659;28;20032;-46
2022/04/24 03:44:55;;;;;;;11.52;10.82;;;;;;;;;;5074423;28;20550;-46
2022/04/24 03:47:21;;;;;;;12.05;11.35;;;;;;;;;;5071504;28;20036;-45
2022/04/24 03:49:47;;;;;;;12.15;11.35;;;;;;;;;;5075149;28;20036;-47
2022/04/24 03:52:12;;;;;;;12.63;11.82;;;;;;;;;;5059659;28;20132;-47
2022/04/24 03:54:38;;;;;;;10.32;9.63;;;;;;;;;;5078648;28;20032;-48
2022/04/24 03:57:04;;;;;;;12.48;11.68;;;;;;;;;;5075595;28;20449;-46
2022/04/24 03:59:29;;;;;;;13.38;12.52;;;;;;;;;;5077079;28;20123;-48
2022/04/24 04:01:55;;;;;;;13.02;12.23;;;;;;;;;;5076995;28;20142;-48
2022/04/24 04:04:20;;;;;;;15.15;14.18;;;;;;;;;;5077175;28;20466;-47
2022/04/24 04:06:46;;;;;;;12.68;11.88;;;;;;;;;;5078081;28;20361;-45
2022/04/24 04:09:11;;;;;;;12.57;11.77;;;;;;;;;;5075324;28;20036;-46
2022/04/24 04:11:37;;;;;;;11.75;11.00;;;;;;;;;;5079665;28;20146;-46
2022/04/24 04:14:02;;;;;;;14.05;12.95;;;;;;;;;;5079874;28;20512;-48
2022/04/24 04:16:27;;;;;;;12.65;11.88;;;;;;;;;;5078051;28;20032;-48
2022/04/24 04:18:53;;;;;;;11.75;10.85;;;;;;;;;;5076926;28;20402;-46
2022/04/24 04:21:18;;;;;;;12.35;11.55;;;;;;;;;;5079669;28;20047;-46
2022/04/24 04:23:43;;;;;;;11.40;10.70;;;;;;;;;;5075496;28;20040;-46
2022/04/24 04:26:09;;;;;;;12.23;11.48;;;;;;;;;;5074279;28;20020;-45
2022/04/24 04:28:34;;;;;;;10.50;9.90;;;;;;;;;;5077966;28;20032;-46
2022/04/24 04:31:00;;;;;;;11.40;10.60;;;;;;;;;;5076693;28;20024;-46
2022/04/24 04:33:25;;;;;;;11.90;11.00;;;;;;;;;;5074705;28;20025;-47
2022/04/24 04:35:50;;;;;;;11.40;10.65;;;;;;;;;;5078995;28;20516;-46
2022/04/24 04:38:16;;;;;;;11.57;10.88;;;;;;;;;;5077142;28;20434;-45
2022/04/24 04:40:41;;;;;;;10.48;9.77;;;;;;;;;;5073178;28;20495;-46
2022/04/24 04:43:07;;;;;;;9.52;8.93;;;;;;;;;;5073772;28;20710;-47
2022/04/24 04:45:33;;;;;;;9.85;9.25;;;;;;;;;;5075615;28;20120;-46
2022/04/24 04:47:58;;;;;;;9.88;9.27;;;;;;;;;;5074971;28;20418;-47
2022/04/24 04:50:23;;;;;;;9.75;9.15;;;;;;;;;;5074528;28;20664;-46
2022/04/24 04:52:49;;;;;;;10.35;9.63;;;;;;;;;;5076885;28;20024;-46
2022/04/24 04:55:14;;;;;;;10.65;9.95;;;;;;;;;;5075029;28;20040;-45
2022/04/24 04:57:39;;;;;;;11.55;10.85;;;;;;;;;;5077131;28;20028;-47
2022/04/24 05:00:06;;;;;;;9.90;9.02;;;;;;;;;;5080432;28;20493;-46
2022/04/24 05:02:36;;;;;;;9.45;8.85;;;;;;;;;;5076802;28;20144;-46
2022/04/24 05:05:03;;;;;;;7.53;6.93;;;;;;;;;;5076116;28;20040;-48
2022/04/24 05:07:28;;;;;;;7.28;6.78;;;;;;;;;;5076554;28;20032;-45
2022/04/24 05:09:53;;;;;;;7.53;7.03;;;;;;;;;;5078171;28;20043;-46
2022/04/24 05:12:19;;;;;;;8.27;7.65;;;;;;;;;;5073285;28;20029;-46
2022/04/24 05:14:44;;;;;;;9.23;8.63;;;;;;;;;;5082067;28;20024;-47
2022/04/24 05:17:09;;;;;;;9.30;8.63;;;;;;;;;;5076575;28;20028;-46
2022/04/24 05:19:35;;;;;;;8.27;7.68;;;;;;;;;;5076254;28;20040;-45
2022/04/24 05:22:00;;;;;;;11.50;10.70;;;;;;;;;;5076814;28;20024;-46
2022/04/24 05:24:25;;;;;;;8.68;8.07;;;;;;;;;;5076650;28;20043;-46
2022/04/24 05:26:51;;;;;;;8.05;7.53;;;;;;;;;;5075609;28;20461;-46
2022/04/24 05:29:17;;;;;;;9.63;9.02;;;;;;;;;;5072198;28;20181;-46
2022/04/24 05:31:42;;;;;;;7.43;6.82;;;;;;;;;;5059211;28;20024;-56
2022/04/24 05:34:08;;;;;;;8.82;8.23;;;;;;;;;;5077490;28;20097;-56
2022/04/24 05:36:33;;;;;;;11.70;10.98;;;;;;;;;;5078643;28;20040;-55
2022/04/24 05:38:59;;;;;;;10.38;9.68;;;;;;;;;;5078339;28;20036;-56
2022/04/24 05:41:24;;;;;;;7.85;7.35;;;;;;;;;;5077540;28;20055;-47
2022/04/24 05:43:49;;;;;;;10.35;9.65;;;;;;;;;;5079534;28;20067;-46
2022/04/24 05:46:15;;;;;;;9.88;9.18;;;;;;;;;;5078616;28;20020;-46
2022/04/24 05:48:40;;;;;;;7.22;6.72;;;;;;;;;;5079696;28;20457;-46
2022/04/24 05:51:05;;;;;;;9.30;8.70;;;;;;;;;;5077207;28;20055;-46
2022/04/24 05:53:31;;;;;;;9.95;9.25;;;;;;;;;;5078559;28;20024;-45
2022/04/24 05:55:57;;;;;;;10.93;10.20;;;;;;;;;;5076693;28;20476;-45
2022/04/24 05:58:22;;;;;;;11.82;11.02;;;;;;;;;;5075957;28;20035;-46
2022/04/24 06:00:47;;;;;;;11.43;10.73;;;;;;;;;;5079436;28;20024;-45
2022/04/24 06:03:13;;;;;;;11.80;10.88;;;;;;;;;;5073523;28;20420;-46
2022/04/24 06:05:38;;;;;;;10.80;10.10;;;;;;;;;;5061343;28;20056;-45
2022/04/24 06:08:04;;;;;;;8.82;8.15;;;;;;;;;;5077110;28;20538;-45
2022/04/24 06:10:30;;;;;;;11.00;10.30;;;;;;;;;;5076072;28;20542;-45
2022/04/24 06:12:56;;;;;;;11.00;10.30;;;;;;;;;;5076348;28;20033;-56
2022/04/24 06:15:24;;;;;;;8.77;8.18;;;;;;;;;;5075312;28;20044;-56
2022/04/24 06:17:52;;;;;;;11.15;10.45;;;;;;;;;;5076654;28;20020;-56
2022/04/24 06:20:18;;;;;;;14.60;13.73;;;;;;;;;;5077753;28;20032;-56
2022/04/24 06:22:51;;;;;;;13.95;13.13;;;;;;;;;;5075099;28;20078;-56
2022/04/24 06:25:19;;;;;;;15.52;14.63;;;;;;;;;;5075927;28;20025;-57
2022/04/24 06:27:45;;;;;;;14.55;13.65;;;;;;;;;;5073314;28;20025;-55
2022/04/24 06:30:11;;;;;;;11.13;10.43;;;;;;;;;;5074316;28;20481;-55
2022/04/24 06:32:39;;;;;;;15.20;14.15;;;;;;;;;;5073830;28;20123;-55
2022/04/24 06:35:06;;;;;;;16.75;15.75;;;;;;;;;;5072264;28;20039;-56
2022/04/24 06:37:32;;;;;;;14.07;13.27;;;;;;;;;;5072290;28;20097;-57
2022/04/24 06:39:57;;;;;;;16.90;15.90;;;;;;;;;;5076958;28;20036;-56
2022/04/24 06:42:22;;;;;;;12.77;11.98;;;;;;;;;;5072976;28;20123;-56
2022/04/24 06:44:48;;;;;;;13.18;12.38;;;;;;;;;;5072610;28;20028;-54
2022/04/24 06:47:13;;;;;;;14.52;13.63;;;;;;;;;;5069182;28;20036;-57
2022/04/24 06:49:39;;;;;;;14.95;14.05;;;;;;;;;;5071041;28;20557;-56
2022/04/24 06:52:05;;;;;;;13.00;12.20;;;;;;;;;;5075650;28;20077;-56
2022/04/24 06:54:30;;;;;;;14.48;13.57;;;;;;;;;;5072606;28;20736;-56
2022/04/24 06:57:01;;;;;;;13.27;12.43;;;;;;;;;;5074086;28;20028;-55
2022/04/24 06:59:27;;;;;;;14.27;13.32;;;;;;;;;;5077690;28;20039;-55
2022/04/24 07:01:52;;;;;;;13.68;12.88;;;;;;;;;;5074500;28;20037;-55
2022/04/24 07:04:17;;;;;;;14.75;13.85;;;;;;;;;;5071427;28;20131;-56
2022/04/24 07:06:43;;;;;;;13.93;13.10;;;;;;;;;;5074922;28;20051;-46
2022/04/24 07:09:08;;;;;;;12.15;11.45;;;;;;;;;;5076349;28;20028;-46
2022/04/24 07:11:35;;;;;;;13.88;12.93;;;;;;;;;;5073638;28;20060;-46
2022/04/24 07:14:00;;;;;;;14.35;13.50;;;;;;;;;;5074423;28;20721;-45
2022/04/24 07:16:26;;;;;;;13.15;12.35;;;;;;;;;;5076610;28;20036;-47
2022/04/24 07:18:51;;;;;;;17.25;16.25;;;;;;;;;;5076239;28;20488;-56
2022/04/24 07:21:16;;;;;;;17.45;16.45;;;;;;;;;;5073033;28;20148;-56
2022/04/24 07:23:42;;;;;;;17.23;16.23;;;;;;;;;;5071045;28;20523;-56
2022/04/24 07:26:07;;;;;;;16.45;15.45;;;;;;;;;;5075661;28;20024;-56
2022/04/24 07:28:33;;;;;;;14.43;13.52;;;;;;;;;;5077048;28;20028;-46
2022/04/24 07:30:58;;;;;;;17.70;16.70;;;;;;;;;;5071987;28;20067;-46
2022/04/24 07:33:23;;;;;;;15.50;14.60;;;;;;;;;;5075554;28;20036;-57
2022/04/24 07:35:49;;;;;;;14.30;13.40;;;;;;;;;;5074000;28;20032;-57
2022/04/24 07:38:14;;;;;;;15.55;14.65;;;;;;;;;;5074822;28;20081;-57
2022/04/24 07:40:40;;;;;;;14.88;13.98;;;;;;;;;;5074877;28;20024;-57
2022/04/24 07:43:10;;;;;;;14.50;13.57;;;;;;;;;;5072805;28;20037;-56
2022/04/24 07:45:41;;;;;;;17.50;16.47;;;;;;;;;;5074799;28;20084;-59
2022/04/24 07:48:08;;;;;;;;;;;;;;;;;;5081091;28;20857;-57
2022/04/24 07:50:35;;;;;;;15.02;14.13;;;;;;;;;;5072876;28;20002;-56
2022/04/24 07:53:02;;;;;;;13.98;13.10;;;;;;;;;;5076883;28;20074;-57
2022/04/24 07:55:28;;;;;;;16.27;15.35;;;;;;;;;;5077265;28;20040;-56
2022/04/24 07:57:55;;;;;;;13.88;13.02;;;;;;;;;;5070383;28;20028;-57
2022/04/24 08:00:22;;;;;;;13.63;12.75;;;;;;;;;;5072305;28;20032;-57
2022/04/24 08:02:50;;;;;;;14.50;13.57;;;;;;;;;;5072524;28;20040;-47
2022/04/24 08:05:27;;;;;;;14.95;14.05;;;;;;;;;;5071173;28;20429;-48
2022/04/24 08:07:54;;;;;;;13.20;12.20;;;;;;;;;;5080472;28;20032;-49
2022/04/24 08:10:20;;;;;;;15.70;14.50;;;;;;;;;;5074803;28;20027;-47
2022/04/24 08:12:46;;;;;;;14.40;13.52;;;;;;;;;;5073552;28;20044;-46
2022/04/24 08:15:12;;;;;;;13.35;12.50;;;;;;;;;;5072175;28;20516;-46
2022/04/24 08:17:38;;;;;;;15.63;14.63;;;;;;;;;;5073003;28;20058;-47
2022/04/24 08:20:05;;;;;;;13.30;12.50;;;;;;;;;;5071301;28;20350;-46
2022/04/24 08:23:01;;;;;;;9.13;8.52;;;;;;;;;;5073832;28;20078;-46
2022/04/24 08:25:28;;;;;;;8.18;7.57;;;;;;;;;;5071628;28;20094;-47
2022/04/24 08:27:56;;;;;;;13.18;12.38;;;;;;;;;;5072822;28;20457;-46
2022/04/24 08:30:23;;;;;;;10.70;9.98;;;;;;;;;;5073484;28;20192;-47
2022/04/24 08:32:50;;;;;;;18.08;16.98;;;;;;;;;;5072194;28;20055;-56
2022/04/24 08:35:19;;;;;;;13.63;12.82;;;;;;;;;;5073700;28;20047;-58
2022/04/24 08:37:45;;;;;;;16.23;15.13;;;;;;;;;;5077782;28;20028;-56
2022/04/24 08:40:13;;;;;;;11.57;10.77;;;;;;;;;;5076016;28;20044;-58
2022/04/24 08:42:40;;;;;;;14.52;13.70;;;;;;;;;;5075453;28;20032;-57
2022/04/24 08:45:08;;;;;;;12.13;11.35;;;;;;;;;;5078279;28;20020;-56
2022/04/24 08:47:34;;;;;;;14.45;13.55;;;;;;;;;;5080848;28;20464;-57
2022/04/24 08:50:01;;;;;;;10.10;9.40;;;;;;;;;;5074363;28;20119;-59
2022/04/24 08:52:28;;;;;;;16.25;15.25;;;;;;;;;;5078526;28;20150;-56
2022/04/24 08:54:55;;;;;;;10.80;10.00;;;;;;;;;;5077177;28;20029;-57
2022/04/24 08:57:26;;;;;;;7.97;7.18;;;;;;;;;;5073708;28;20055;-57
2022/04/24 08:59:53;;;;;;;9.93;9.15;;;;;;;;;;5078985;28;20100;-57
2022/04/24 09:02:18;;;;;;;11.63;10.93;;;;;;;;;;5077381;28;20028;-58
2022/04/24 09:04:44;;;;;;;8.15;7.43;;;;;;;;;;5075061;28;20526;-57
2022/04/24 09:07:10;;;;;;;7.57;7.05;;;;;;;;;;5075660;28;20039;-56
2022/04/24 09:09:44;;;;;;;8.25;7.65;;;;;;;;;;5071782;28;20063;-58
2022/04/24 09:12:12;;;;;;;11.32;10.60;;;;;;;;;;5075518;28;20455;-57
2022/04/24 09:14:38;;;;;;;7.05;6.45;;;;;;;;;;5075755;28;20559;-58
2022/04/24 09:17:15;;;;;;;11.25;10.38;;;;;;;;;;5077562;28;20029;-58
2022/04/24 09:19:40;;;;;;;14.25;13.23;;;;;;;;;;5076713;28;20603;-58
2022/04/24 09:22:08;;;;;;;14.07;13.15;;;;;;;;;;5080483;28;20121;-57
2022/04/24 09:24:46;;;;;;;9.18;8.52;;;;;;;;;;5075487;28;20025;-57
2022/04/24 09:27:41;;;;;;;6.95;6.45;;;;;;;;;;5078454;28;20047;-57
2022/04/24 09:30:12;;;;;;;6.40;5.90;;;;;;;;;;5071326;28;20044;-57
2022/04/24 09:32:48;;;;;;;8.32;6.93;;;;;;;;;;5074004;28;20028;-57
2022/04/24 09:35:26;;;;;;;6.78;6.28;;;;;;;;;;5074352;28;20085;-59
2022/04/24 09:37:52;;;;;;;11.93;11.15;;;;;;;;;;5075972;28;20742;-57
2022/04/24 09:40:19;;;;;;;8.48;7.82;;;;;;;;;;5074341;28;20047;-59
2022/04/24 09:42:53;;;;;;;7.38;6.88;;;;;;;;;;5074899;28;20024;-57
2022/04/24 09:45:23;;;;;;;7.53;6.93;;;;;;;;;;5071766;28;20413;-58
2022/04/24 09:47:56;;;;;;;7.72;7.13;;;;;;;;;;5073929;28;20036;-56
2022/04/24 09:50:22;;;;;;;7.95;7.30;;;;;;;;;;5072305;28;20028;-59
2022/04/24 09:52:48;;;;;;;7.20;6.70;;;;;;;;;;5076779;28;20067;-58
2022/04/24 09:55:14;;;;;;;8.38;7.68;;;;;;;;;;5076106;28;20059;-57
2022/04/24 09:57:40;;;;;;;8.48;7.90;;;;;;;;;;5075281;28;20027;-57
2022/04/24 10:00:06;;;;;;;7.70;7.10;;;;;;;;;;5075199;28;20339;-59
2022/04/24 10:02:32;;;;;;;8.50;7.90;;;;;;;;;;5062008;28;20055;-58
2022/04/24 10:04:58;;;;;;;7.18;6.68;;;;;;;;;;5075702;28;20502;-57
2022/04/24 10:07:24;;;;;;;8.15;7.55;;;;;;;;;;5072403;28;20063;-57
2022/04/24 10:09:49;;;;;;;7.35;6.85;;;;;;;;;;5071754;28;20051;-59
2022/04/24 10:12:18;;;;;;;7.57;6.97;;;;;;;;;;5073887;28;20032;-59
2022/04/24 10:14:55;;;;;;;8.27;7.68;;;;;;;;;;5073999;28;20039;-58
2022/04/24 10:17:51;;;;;;;10.38;9.40;;;;;;;;;;5078479;28;20032;-58
2022/04/24 10:20:25;;;;;;;7.40;6.80;;;;;;;;;;5077563;28;20047;-59
2022/04/24 10:22:53;;;;;;;6.60;6.10;;;;;;;;;;5076132;28;20048;-58
2022/04/24 10:25:32;;;;;;;5.97;5.55;;;;;;;;;;5077167;28;20514;-58
2022/04/24 10:28:13;;;;;;;7.47;6.85;;;;;;;;;;5073978;28;20046;-58
2022/04/24 10:30:39;;;;;;;;;;;;;;;;;;5076602;28;20046;-57
2022/04/24 10:33:15;;;;;;;7.05;6.45;;;;;;;;;;5073180;28;19916;-59
2022/04/24 10:35:52;;;;;;;6.40;5.90;;;;;;;;;;5076144;28;20028;-57
2022/04/24 10:38:20;;;;;;;7.75;7.25;;;;;;;;;;5072876;28;20127;-58
2022/04/24 10:41:13;;;;;;;8.02;7.38;;;;;;;;;;5072189;28;20020;-58
2022/04/24 10:43:41;;;;;;;7.43;6.82;;;;;;;;;;5075437;28;20035;-59
2022/04/24 10:46:16;;;;;;;10.15;9.35;;;;;;;;;;5073406;28;20059;-57
2022/04/24 10:48:42;;;;;;;7.43;6.82;;;;;;;;;;5073736;28;20069;-58
2022/04/24 10:51:07;;;;;;;9.60;8.90;;;;;;;;;;5072116;28;20504;-57
2022/04/24 10:53:55;;;;;;;8.20;7.60;;;;;;;;;;5072533;28;20024;-57
2022/04/24 10:56:20;;;;;;;6.82;6.25;;;;;;;;;;5074533;28;20058;-57
2022/04/24 10:58:47;;;;;;;7.80;7.20;;;;;;;;;;5073073;28;20635;-57
2022/04/24 11:01:15;;;;;;;12.77;11.65;;;;;;;;;;5076398;28;20024;-57
2022/04/24 11:03:41;;;;;;;10.55;9.65;;;;;;;;;;5074086;28;20039;-58
2022/04/24 11:06:18;;;;;;;12.73;11.82;;;;;;;;;;5071619;28;20036;-57
2022/04/24 11:08:43;;;;;;;12.15;11.35;;;;;;;;;;5074182;28;20341;-57
2022/04/24 11:11:13;;;;;;;9.30;8.60;;;;;;;;;;5075582;28;20043;-58
2022/04/24 11:13:39;;;;;;;12.85;11.95;;;;;;;;;;5073392;28;20635;-56
2022/04/24 11:16:06;;;;;;;12.80;11.90;;;;;;;;;;5074247;28;20028;-58
2022/04/24 11:18:32;;;;;;;11.90;11.10;;;;;;;;;;5071487;28;20728;-57
2022/04/24 11:21:03;;;;;;;11.32;10.32;;;;;;;;;;5075691;28;20028;-57
2022/04/24 11:23:35;;;;;;;10.15;9.48;;;;;;;;;;5076798;28;20025;-57
2022/04/24 11:26:02;;;;;;;7.20;6.57;;;;;;;;;;5073177;28;20028;-56
2022/04/24 11:28:41;;;;;;;7.13;6.53;;;;;;;;;;5072158;28;20577;-47
2022/04/24 11:31:14;;;;;;;7.05;6.53;;;;;;;;;;5075412;28;20389;-46
2022/04/24 11:34:01;;;;;;;6.95;6.45;;;;;;;;;;5070209;28;20024;-45
2022/04/24 11:36:32;;;;;;;9.07;8.25;;;;;;;;;;5070941;28;20117;-45
2022/04/24 11:39:01;;;;;;;9.02;8.23;;;;;;;;;;5069057;28;20036;-46
2022/04/24 11:41:31;;;;;;;9.00;8.18;;;;;;;;;;5068661;28;20908;-47
2022/04/24 11:44:01;;;;;;;6.30;5.80;;;;;;;;;;5074708;28;20040;-45
2022/04/24 11:51:55;;;;;;;8.45;7.85;;;;;;;;;;5070700;28;20044;-48
2022/04/24 11:54:23;;;;;;;7.00;6.40;;;;;;;;;;5071131;28;20092;-45
2022/04/24 11:56:50;;;;;;;6.68;6.13;;;;;;;;;;5071576;28;20098;-47
2022/04/24 11:59:21;;;;;;;9.55;8.85;;;;;;;;;;5070096;28;20032;-46
2022/04/24 12:01:58;;;;;;;6.53;6.03;;;;;;;;;;5071488;28;20116;-47
2022/04/24 12:04:31;;;;;;;6.35;5.85;;;;;;;;;;5046609;28;20047;-46
2022/04/24 12:07:07;;;;;;;7.50;6.90;;;;;;;;;;5075525;28;20579;-46
2022/04/24 12:09:34;;;;;;;8.63;8.02;;;;;;;;;;5068644;28;20032;-45
2022/04/24 12:12:12;;;;;;;8.90;8.30;;;;;;;;;;5074320;28;20016;-47
2022/04/24 12:14:40;;;;;;;8.85;8.25;;;;;;;;;;5083537;28;20032;-47
2022/04/24 12:17:08;;;;;;;11.15;10.35;;;;;;;;;;5081255;28;20025;-48
2022/04/24 12:19:34;;;;;;;11.55;10.75;;;;;;;;;;5077876;28;20028;-49
2022/04/24 12:22:05;;;;;;;12.38;11.52;;;;;;;;;;5077167;28;20124;-46
2022/04/24 12:24:39;;;;;;;7.15;6.65;;;;;;;;;;5076053;28;20050;-59
2022/04/24 12:27:04;;;;;;;10.43;9.73;;;;;;;;;;5077850;28;20093;-47
2022/04/24 12:29:39;;;;;;;12.02;11.25;;;;;;;;;;5072117;28;20043;-47
2022/04/24 12:32:06;;;;;;;10.40;9.70;;;;;;;;;;5076247;28;20081;-46
2022/04/24 12:34:39;;;;;;;11.93;11.02;;;;;;;;;;5077678;28;20101;-46
2022/04/24 12:37:05;;;;;;;9.50;8.80;;;;;;;;;;5076380;28;20025;-49
2022/04/24 12:39:32;;;;;;;7.53;7.03;;;;;;;;;;5075393;28;20034;-46
2022/04/24 12:41:59;;;;;;;12.05;11.27;;;;;;;;;;5073951;28;20033;-48
2022/04/24 12:44:24;;;;;;;11.05;10.35;;;;;;;;;;5072720;28;20050;-45
2022/04/24 12:46:50;;;;;;;12.57;11.70;;;;;;;;;;5077281;28;20473;-48
2022/04/24 12:49:30;;;;;;;12.18;11.40;;;;;;;;;;5071045;28;20044;-46
2022/04/24 12:51:56;;;;;;;14.10;13.20;;;;;;;;;;5077180;28;20400;-47
2022/04/24 12:54:21;;;;;;;13.52;12.63;;;;;;;;;;5075654;28;20051;-45
2022/04/24 12:56:47;;;;;;;11.82;10.95;;;;;;;;;;5072762;28;20028;-47
2022/04/24 12:59:12;;;;;;;11.43;10.63;;;;;;;;;;5075036;28;20040;-49
2022/04/24 13:01:39;;;;;;;8.73;8.13;;;;;;;;;;5074645;28;20144;-46
2022/04/24 13:04:05;;;;;;;13.65;12.65;;;;;;;;;;5071316;28;20055;-46
2022/04/24 13:06:30;;;;;;;13.07;12.18;;;;;;;;;;5077681;28;20465;-46
2022/04/24 13:08:56;;;;;;;12.38;11.45;;;;;;;;;;5077352;28;20039;-48
2022/04/24 13:11:26;;;;;;;11.48;10.68;;;;;;;;;;5077167;28;20469;-59
2022/04/24 13:13:53;;;;;;;11.52;10.73;;;;;;;;;;5076202;28;20125;-59
2022/04/24 13:19:04;;;;;;;11.90;11.02;;;;;;;;;;5072321;28;20497;-59
2022/04/24 13:21:30;;;;;;;12.80;12.00;;;;;;;;;;5074738;28;20039;-57
2022/04/24 13:23:55;;;;;;;10.80;10.10;;;;;;;;;;5075889;28;20024;-59
2022/04/24 13:26:22;;;;;;;13.13;12.23;;;;;;;;;;5074759;28;20099;-57
2022/04/24 13:28:48;;;;;;;13.68;12.75;;;;;;;;;;5076377;28;20028;-59
2022/04/24 13:31:14;;;;;;;13.60;12.75;;;;;;;;;;5077024;28;20521;-47
2022/04/24 13:33:39;;;;;;;14.73;13.82;;;;;;;;;;5074163;28;20030;-46
2022/04/24 13:36:05;;;;;;;11.73;10.93;;;;;;;;;;5071827;28;20401;-51
2022/04/24 13:38:32;;;;;;;12.63;11.63;;;;;;;;;;5070614;28;20032;-45
2022/04/24 13:41:01;;;;;;;9.35;8.65;;;;;;;;;;5072119;28;20484;-48
2022/04/24 13:43:28;;;;;;;11.23;10.52;;;;;;;;;;5073184;28;20045;-45
2022/04/24 13:45:53;;;;;;;11.20;10.43;;;;;;;;;;5071616;28;20036;-45
2022/04/24 13:48:21;;;;;;;10.02;9.32;;;;;;;;;;5069429;28;20458;-45
2022/04/24 13:50:47;;;;;;;8.60;8.00;;;;;;;;;;5070207;28;20044;-46
2022/04/24 13:53:12;;;;;;;9.98;9.18;;;;;;;;;;5073771;28;20093;-45
2022/04/24 13:55:38;;;;;;;10.65;9.75;;;;;;;;;;5076362;28;20059;-47
2022/04/24 13:58:04;;;;;;;10.27;9.57;;;;;;;;;;5077195;28;20450;-49
2022/04/24 14:00:32;;;;;;;11.13;10.30;;;;;;;;;;5076924;28;20074;-48
2022/04/24 14:02:58;;;;;;;9.50;8.80;;;;;;;;;;5072686;28;20107;-47
2022/04/24 14:05:25;;;;;;;9.70;9.00;;;;;;;;;;5072243;28;20047;-46
2022/04/24 14:07:51;;;;;;;8.63;7.95;;;;;;;;;;5071042;28;20737;-46
2022/04/24 14:10:18;;;;;;;9.57;8.98;;;;;;;;;;5073524;28;20039;-46
2022/04/24 14:12:43;;;;;;;12.45;11.63;;;;;;;;;;5074123;28;20357;-46
2022/04/24 14:15:09;;;;;;;11.43;10.63;;;;;;;;;;5073366;28;20033;-47
2022/04/24 14:17:35;;;;;;;12.50;11.70;;;;;;;;;;5073673;28;20028;-48
2022/04/24 14:20:01;;;;;;;12.30;11.40;;;;;;;;;;5070357;28;20029;-47
2022/04/24 14:22:26;;;;;;;11.57;10.77;;;;;;;;;;5068161;28;20036;-49
2022/04/24 14:24:53;;;;;;;9.35;8.65;;;;;;;;;;5070226;28;20102;-45
2022/04/24 14:27:19;;;;;;;11.00;10.27;;;;;;;;;;5073015;28;20665;-46
2022/04/24 14:29:45;;;;;;;9.77;9.07;;;;;;;;;;5069867;28;20032;-45
2022/04/24 14:32:12;;;;;;;8.98;8.27;;;;;;;;;;5069715;28;20044;-46
2022/04/24 14:34:39;;;;;;;8.27;7.68;;;;;;;;;;5059166;28;20052;-49
2022/04/24 14:37:05;;;;;;;8.07;7.47;;;;;;;;;;5073223;28;20027;-48
2022/04/24 14:39:31;;;;;;;8.68;7.90;;;;;;;;;;5076234;28;20028;-46